Hauptseite
METAR-TAF:

METAR-TAF

Flughäfen :

Frontone, Italien

Breite: 43-31N, Länge: 012-44E, Höhe: 570 m

Beobachtung

Neuester Wetterbericht von vor 22 Minuten, um 00:55 UTC
Wind 8 kt aus Ost/Südost
Temperatur 2°C
Luftfeuchtigkeit 100%
Luftdruck 1008 hPa
Sichtweite: 5000 m
Geschlossene Wolkendecke in der Höhe von 1000 ft
feuchter Dunst

METAR: LIVF 250055Z 12008KT 5000 BR OVC010 02/02 Q1008 RMK OVC MON INVIS VAL INVIS VIS MIN 5000

Zeit: 02:17 (01:17 UTC)


TAF: fehlend

Wetterbeobachtungen und Prognosen von mehr als 4000 Flughäfen (METAR und TAF Bericht).

Die verfügbaren Stationen werden durch gelbe und rote Markierungen auf der Karte dargestellt.

Führen Sie die Maus auf sie, um den Namen der Station zu sehen.

Darauf klicken, um die Beobachtung von Wetterbeobachtungen und Prognosen zu sehen.

Um die Karte zu ändern : klicken Sie auf den grünen Tasten mit einem schwarzen Kreuz Zum Vergrößern, auf den grünen Button mit einem Gedankenstrich zu verkleinern, oder auf die grünen Pfeile für benachbarte Karten.


METAR-TAF: